Terminal Aerodrome Forecast
Issued by NWS

Home | Current Version | Previous Version | Graphics & Text | Print | Product List | Glossary On
Versions: 1 2 3 4 5 6 7 8 9 10 11 12 13
695
FTUS45 KGGW 271120
TAFSDY
TAF
KSDY 271120Z 2712/2812 VRB03KT 4SM -RA BR OVC015
     FM272000 07010KT P6SM -RA OVC045
     FM280900 35006KT P6SM OVC070
      AMD LTD TO CLD VIS AND WIND=

USA.gov is the U.S. government's official web portal to all federal, state and local government web resources and services.